Union, KY

10:52 PM EDT on July 28, 2015 (GMT -0400)
Redstone Village | | Change Station
CLOSE
Current Station
Personal Weather Station
Location: Union, KY
Elevation: 860 ft
Nearby Weather Stations

Elev 860 ft 38.93 °N, 84.69 °W | Updated 2 seconds ago

Partly Cloudy
Partly Cloudy
80.0 °F
Feels Like 85 °F
N
0.0
Wind Variable Wind from NNE
Gusts 0.0 mph

Today
High -- | Low -- °F
--% Chance of Precip.
Yesterday
High -- | Low -- °F
Precip. -- in
6:36 AM 8:54 PM
Waxing Gibbous, 93% visible
Pressure 29.94 in
Visibility 9.0 miles
Clouds Few 4500 ft
Mostly Cloudy 25000 ft
Heat Index 85 °F
Dew Point 75 °F
Humidity 85%
Rainfall in
Snow Depth Not available.
UV 0 out of 12
Pollen 5.70 out of 12
Air Quality Not available.
Flu Activity Not available.
METAR KCVG 290152Z 00000KT 9SM FEW045 BKN250 27/22 A2997 RMK AO2 SLP137 T02670222 $

More Conditions Fewer Conditions

Pressure 29.94 in
Visibility 9.0 miles
Clouds Few 4500 ft
Mostly Cloudy 25000 ft
Heat Index 85 °F
Dew Point 75 °F
Humidity 85%
Rainfall in
Snow Depth Not available.
UV 0 out of 12
Pollen 5.70 out of 12
Air Quality Not available.
Flu Activity Not available.
METAR KCVG 290152Z 00000KT 9SM FEW045 BKN250 27/22 A2997 RMK AO2 SLP137 T02670222 $

More Conditions Fewer Conditions

10-Day Weather Forecast

×

Almanac

Astronomy

Jul. 28, 2015 Rise Set
Actual Time
Civil Twilight
Nautical Twilight
Astronomical Twilight
Moon
Length of Visible Light
Length of Day
Tomorrow will be .
, % of the Moon is Illuminated

Today's Extremes

State Highs State Lows

Community

WunderPhotos

Upload Photos

1,842,013 photos uploaded!

WunderBlogs® & News

Nearby

Air Quality

  Air Quality AQ Index Pollutant
Not available.

Snow Depth

Station Depth Elevation

Earthquake Activity

City Distance Mag. Time & Date
Minimum magnitude displayed is 2.5.

Coastal Water Temperatures

Place Temperature

Stations

Nearby Weather Stations

Station Location Temp. Windchill Dew Point Humidity Wind Precip. Elev Updated Type